Time;durP1;ratioP1;P1;durP2;ratioP2;P2;SDS_P1;SDS_P2;PMS_P1;PMS_P2;Temp;Humidity;BMP_temperature;BMP_pressure;BME280_temperature;BME280_humidity;BME280_pressure;Samples;Min_cycle;Max_cycle;Signal;HPM_P1;HPM_P2
2021/07/15 00:01:36;;;;;;;0.87;0.60;;;24.00;54.70;;;;;;4944673;28;20195;-48
2021/07/15 00:04:02;;;;;;;0.70;0.70;;;24.00;55.00;;;;;;4944946;28;20254;-51
2021/07/15 00:06:28;;;;;;;0.90;0.80;;;24.10;55.00;;;;;;4949622;28;20590;-51
2021/07/15 00:08:55;;;;;;;0.90;0.80;;;24.10;55.10;;;;;;4941548;28;20523;-48
2021/07/15 00:11:24;;;;;;;0.73;0.73;;;24.00;55.40;;;;;;4946200;28;20215;-52
2021/07/15 00:13:50;;;;;;;0.70;0.70;;;24.10;55.60;;;;;;4939667;28;20463;-51
2021/07/15 00:16:16;;;;;;;1.07;0.70;;;24.00;56.00;;;;;;4947500;28;20530;-51
2021/07/15 00:18:45;;;;;;;0.50;0.50;;;23.90;56.40;;;;;;4951245;28;20243;-48
2021/07/15 00:21:12;;;;;;;0.70;0.70;;;23.80;56.40;;;;;;4946478;28;20278;-52
2021/07/15 00:23:39;;;;;;;0.60;0.60;;;23.60;57.30;;;;;;4946740;28;20565;-52
2021/07/15 00:26:07;;;;;;;0.57;0.57;;;23.40;57.60;;;;;;4947894;28;20842;-48
2021/07/15 00:28:36;;;;;;;0.70;0.70;;;23.40;57.90;;;;;;4939410;28;20449;-48
2021/07/15 00:31:03;;;;;;;0.70;0.60;;;23.40;58.00;;;;;;4947380;28;20657;-49
2021/07/15 00:33:29;;;;;;;1.23;0.77;;;23.50;58.00;;;;;;4948325;28;20470;-47
2021/07/15 00:35:56;;;;;;;0.60;0.60;;;23.30;58.20;;;;;;4947336;29;20862;-53
2021/07/15 00:38:22;;;;;;;0.80;0.80;;;23.00;59.20;;;;;;4944924;28;20440;-47
2021/07/15 00:40:48;;;;;;;0.80;0.80;;;22.80;59.40;;;;;;4950615;28;20468;-49
2021/07/15 00:43:14;;;;;;;1.43;0.80;;;22.70;60.20;;;;;;4947839;28;21002;-49
2021/07/15 00:45:39;;;;;;;0.60;0.60;;;22.80;60.10;;;;;;4947489;28;20205;-52
2021/07/15 00:48:05;;;;;;;0.60;0.60;;;22.90;60.00;;;;;;4951407;28;20196;-49
2021/07/15 00:50:31;;;;;;;0.60;0.60;;;22.90;59.80;;;;;;4948884;28;20292;-48
2021/07/15 00:52:58;;;;;;;0.60;0.60;;;22.90;59.70;;;;;;4950957;28;20571;-46
2021/07/15 00:55:33;;;;;;;1.27;0.60;;;22.90;59.40;;;;;;4951004;28;20651;-49
2021/07/15 00:58:00;;;;;;;3.00;0.80;;;22.80;59.60;;;;;;4938713;28;20531;-46
2021/07/15 01:00:26;;;;;;;0.83;0.83;;;22.80;59.40;;;;;;4949657;28;20498;-54
2021/07/15 01:02:53;;;;;;;0.70;0.60;;;22.90;59.40;;;;;;4948526;28;20444;-51
2021/07/15 01:05:32;;;;;;;1.27;0.50;;;22.80;59.50;;;;;;4945512;28;20943;-48
2021/07/15 01:07:59;;;;;;;0.90;0.60;;;22.70;59.40;;;;;;4948596;28;20454;-47
2021/07/15 01:10:29;;;;;;;0.60;0.50;;;22.70;59.30;;;;;;4947133;28;20483;-50
2021/07/15 01:13:09;;;;;;;0.60;0.60;;;22.70;59.40;;;;;;4948187;28;20799;-51
2021/07/15 01:16:03;;;;;;;2.03;0.50;;;22.80;59.20;;;;;;4950852;28;20460;-52
2021/07/15 01:18:40;;;;;;;0.60;0.60;;;22.80;59.40;;;;;;4905220;28;20478;-48
2021/07/15 01:21:27;;;;;;;0.50;0.50;;;22.70;59.40;;;;;;4951162;28;20443;-49
2021/07/15 01:24:18;;;;;;;0.60;0.60;;;22.80;59.40;;;;;;4949657;28;20990;-50
2021/07/15 01:27:17;;;;;;;0.63;0.63;;;22.70;59.30;;;;;;4942531;28;20802;-49
2021/07/15 01:30:07;;;;;;;0.60;0.60;;;22.70;59.50;;;;;;4951380;28;20589;-51
2021/07/15 01:32:57;;;;;;;0.60;0.60;;;22.50;59.80;;;;;;4945909;28;20459;-49
2021/07/15 01:35:36;;;;;;;0.70;0.70;;;22.10;60.90;;;;;;4936332;28;20458;-53
2021/07/15 01:38:04;;;;;;;0.60;0.60;;;21.90;61.70;;;;;;4948614;28;20495;-50
2021/07/15 01:40:47;;;;;;;0.70;0.50;;;22.00;61.70;;;;;;4951076;28;20570;-52
2021/07/15 01:43:17;;;;;;;0.60;0.60;;;21.90;61.90;;;;;;4948608;28;20452;-49
2021/07/15 01:45:44;;;;;;;0.97;0.80;;;21.80;62.30;;;;;;4943936;28;20835;-49
2021/07/15 01:48:10;;;;;;;0.50;0.43;;;22.00;62.10;;;;;;4951255;28;20541;-50
2021/07/15 01:50:37;;;;;;;0.50;0.50;;;22.00;61.60;;;;;;4953596;29;20609;-52
2021/07/15 01:53:03;;;;;;;0.47;0.47;;;21.90;63.20;;;;;;4949971;28;20455;-49
2021/07/15 01:55:29;;;;;;;1.33;0.60;;;21.60;62.40;;;;;;4947786;28;20484;-52
2021/07/15 01:57:56;;;;;;;1.80;0.60;;;21.50;63.30;;;;;;4947079;28;20448;-51
2021/07/15 02:00:21;;;;;;;0.80;0.60;;;21.70;63.50;;;;;;4946245;28;21255;-51
2021/07/15 02:02:48;;;;;;;0.50;0.50;;;21.80;62.30;;;;;;4950316;28;20436;-50
2021/07/15 02:05:16;;;;;;;0.60;0.60;;;22.00;62.40;;;;;;4948036;28;21246;-53
2021/07/15 02:07:43;;;;;;;0.50;0.50;;;22.10;61.70;;;;;;4950190;28;20454;-51
2021/07/15 02:10:11;;;;;;;3.20;1.07;;;22.00;61.40;;;;;;4946927;28;20507;-50
2021/07/15 02:12:38;;;;;;;0.50;0.50;;;21.80;62.20;;;;;;4944872;28;20452;-51
2021/07/15 02:15:04;;;;;;;0.50;0.50;;;21.90;62.10;;;;;;4946963;28;20479;-50
2021/07/15 02:17:39;;;;;;;0.50;0.50;;;22.00;61.50;;;;;;4948066;28;20483;-48
2021/07/15 02:20:08;;;;;;;0.70;0.50;;;21.70;62.50;;;;;;4947823;28;20523;-52
2021/07/15 02:22:35;;;;;;;0.60;0.60;;;21.60;62.50;;;;;;4949951;28;20511;-50
2021/07/15 02:25:01;;;;;;;0.70;0.50;;;21.30;63.20;;;;;;4948388;28;20458;-52
2021/07/15 02:27:28;;;;;;;0.60;0.50;;;21.20;64.10;;;;;;4947305;28;20891;-52
2021/07/15 02:29:53;;;;;;;0.83;0.40;;;21.30;64.10;;;;;;4951265;28;20479;-51
2021/07/15 02:32:19;;;;;;;0.60;0.50;;;21.60;63.30;;;;;;4948841;28;21459;-50
2021/07/15 02:34:51;;;;;;;1.13;0.70;;;21.70;62.70;;;;;;4942656;28;20200;-51
2021/07/15 02:37:23;;;;;;;0.50;0.40;;;21.90;62.20;;;;;;4948705;28;20451;-51
2021/07/15 02:39:48;;;;;;;0.80;0.63;;;22.00;61.10;;;;;;4951780;28;20432;-49
2021/07/15 02:42:14;;;;;;;1.13;0.60;;;22.10;61.30;;;;;;4949440;28;20527;-49
2021/07/15 02:44:42;;;;;;;0.50;0.50;;;22.20;61.10;;;;;;4947070;28;20283;-52
2021/07/15 02:47:09;;;;;;;0.50;0.50;;;22.30;60.70;;;;;;4950294;29;20549;-53
2021/07/15 02:49:34;;;;;;;0.70;0.60;;;22.50;60.60;;;;;;4946081;28;20520;-51
2021/07/15 02:52:00;;;;;;;0.90;0.50;;;22.60;60.10;;;;;;4953068;28;20498;-51
2021/07/15 02:54:26;;;;;;;0.60;0.60;;;22.60;59.00;;;;;;4945647;28;20278;-49
2021/07/15 02:57:05;;;;;;;1.93;0.70;;;22.50;59.90;;;;;;4949864;28;20287;-52
2021/07/15 02:59:35;;;;;;;1.17;0.60;;;22.40;59.90;;;;;;4949666;28;20199;-51
2021/07/15 03:02:19;;;;;;;1.20;0.50;;;22.40;60.10;;;;;;4949608;28;20491;-51
2021/07/15 03:05:06;;;;;;;0.60;0.60;;;22.50;59.60;;;;;;4952001;28;20454;-49
2021/07/15 03:07:36;;;;;;;0.60;0.50;;;22.50;59.80;;;;;;4947897;28;20809;-52
2021/07/15 03:10:04;;;;;;;0.57;0.57;;;22.60;60.10;;;;;;4944596;28;20494;-52
2021/07/15 03:12:36;;;;;;;1.57;0.50;;;22.60;59.30;;;;;;4944351;28;20971;-51
2021/07/15 03:15:03;;;;;;;0.60;0.60;;;22.10;60.10;;;;;;4944118;28;20443;-50
2021/07/15 03:17:34;;;;;;;3.70;0.67;;;21.90;61.20;;;;;;4945969;28;20530;-51
2021/07/15 03:20:07;;;;;;;1.00;0.50;;;22.00;62.10;;;;;;4947819;28;20538;-50
2021/07/15 03:22:36;;;;;;;0.57;0.57;;;22.00;61.40;;;;;;4949004;28;20565;-49
2021/07/15 03:25:08;;;;;;;1.40;0.70;;;22.20;61.40;;;;;;4941791;28;20440;-51
2021/07/15 03:27:35;;;;;;;0.50;0.50;;;22.40;60.70;;;;;;4944498;28;20454;-50
2021/07/15 03:30:06;;;;;;;0.73;0.50;;;22.50;60.50;;;;;;4946202;29;20487;-50
2021/07/15 03:32:32;;;;;;;0.90;0.50;;;22.60;60.00;;;;;;4944794;28;20448;-51
2021/07/15 03:34:59;;;;;;;4.07;0.87;;;22.60;60.20;;;;;;4941126;28;20448;-52
2021/07/15 03:37:25;;;;;;;1.93;0.60;;;22.70;60.40;;;;;;4942807;28;20436;-48
2021/07/15 03:39:51;;;;;;;1.40;0.63;;;22.90;60.70;;;;;;4949659;28;20490;-46
2021/07/15 03:42:20;;;;;;;1.47;0.60;;;23.00;59.50;;;;;;4948970;28;20451;-49
2021/07/15 03:44:46;;;;;;;1.90;0.43;;;23.00;59.30;;;;;;4950047;28;20924;-47
2021/07/15 03:47:13;;;;;;;0.60;0.60;;;23.00;58.90;;;;;;4947445;29;21046;-46
2021/07/15 03:49:42;;;;;;;0.70;0.50;;;23.10;59.30;;;;;;4942565;28;20506;-51
2021/07/15 03:52:17;;;;;;;1.10;0.77;;;23.10;58.70;;;;;;4948097;28;20440;-46
2021/07/15 03:54:45;;;;;;;0.80;0.60;;;23.10;58.90;;;;;;4951430;28;20490;-49
2021/07/15 03:57:12;;;;;;;0.53;0.53;;;23.10;58.60;;;;;;4945972;28;20443;-46
2021/07/15 03:59:42;;;;;;;1.37;0.43;;;23.10;58.70;;;;;;4952372;28;20470;-47
2021/07/15 04:02:09;;;;;;;0.80;0.60;;;23.20;58.70;;;;;;4945458;28;20437;-48
2021/07/15 04:04:36;;;;;;;0.90;0.60;;;23.20;57.60;;;;;;4946785;28;20462;-49
2021/07/15 04:07:03;;;;;;;2.63;0.60;;;23.10;58.60;;;;;;4949700;28;20439;-46
2021/07/15 04:09:33;;;;;;;0.60;0.53;;;23.20;59.10;;;;;;4941608;28;20482;-48
2021/07/15 04:12:00;;;;;;;0.63;0.60;;;23.20;58.30;;;;;;4948191;28;20511;-46
2021/07/15 04:14:48;;;;;;;0.50;0.50;;;23.20;59.10;;;;;;4948399;28;20444;-46
2021/07/15 04:17:16;;;;;;;0.53;0.53;;;23.30;58.70;;;;;;4938708;28;20478;-49
2021/07/15 04:19:43;;;;;;;0.50;0.50;;;23.30;59.10;;;;;;4951694;28;20471;-48
2021/07/15 04:22:12;;;;;;;0.50;0.50;;;23.50;58.90;;;;;;4949129;28;20543;-52
2021/07/15 04:24:40;;;;;;;0.80;0.60;;;23.50;58.50;;;;;;4950399;28;20444;-51
2021/07/15 04:27:06;;;;;;;0.60;0.60;;;23.50;58.30;;;;;;4946832;28;20439;-50
2021/07/15 04:29:32;;;;;;;1.43;0.80;;;23.50;58.50;;;;;;4953232;28;20486;-51
2021/07/15 04:32:00;;;;;;;2.87;0.60;;;23.20;58.50;;;;;;4956213;29;20435;-51
2021/07/15 04:34:27;;;;;;;3.23;0.60;;;23.10;59.70;;;;;;4953530;28;20505;-49
2021/07/15 04:36:54;;;;;;;1.03;0.60;;;23.10;59.40;;;;;;4951124;28;20923;-50
2021/07/15 04:39:23;;;;;;;0.50;0.50;;;23.20;59.40;;;;;;4951942;28;20887;-48
2021/07/15 04:41:49;;;;;;;0.60;0.60;;;23.30;59.30;;;;;;4952277;28;20439;-50
2021/07/15 04:44:15;;;;;;;0.70;0.50;;;23.40;59.00;;;;;;4947808;28;20448;-46
2021/07/15 04:46:42;;;;;;;0.60;0.57;;;23.40;59.20;;;;;;4949794;28;20447;-48
2021/07/15 04:49:08;;;;;;;6.23;3.70;;;23.40;59.30;;;;;;4954777;28;20665;-46
2021/07/15 04:51:41;;;;;;;3.80;2.90;;;23.30;59.20;;;;;;4952601;28;20470;-45
2021/07/15 04:54:08;;;;;;;2.90;1.80;;;23.20;59.40;;;;;;4951987;28;20446;-48
2021/07/15 04:56:35;;;;;;;2.30;0.70;;;23.10;59.60;;;;;;4950500;28;20451;-47
2021/07/15 04:59:02;;;;;;;1.13;0.60;;;23.00;59.60;;;;;;4948149;28;21056;-47
2021/07/15 05:01:28;;;;;;;1.20;0.80;;;22.90;60.30;;;;;;4945292;28;20463;-46
2021/07/15 05:03:54;;;;;;;0.60;0.60;;;22.80;61.10;;;;;;4951090;28;20478;-47
2021/07/15 05:06:22;;;;;;;1.03;0.70;;;22.80;60.80;;;;;;4950048;28;20471;-47
2021/07/15 05:08:48;;;;;;;2.70;1.33;;;22.60;61.40;;;;;;4951040;28;20188;-45
2021/07/15 05:11:14;;;;;;;4.70;0.90;;;22.30;61.10;;;;;;4949703;28;20494;-46
2021/07/15 05:13:39;;;;;;;2.40;0.80;;;21.90;63.90;;;;;;4950721;28;20482;-46
2021/07/15 05:16:06;;;;;;;5.10;1.10;;;22.00;63.80;;;;;;4955269;29;20192;-46
2021/07/15 05:18:32;;;;;;;1.20;0.70;;;22.30;62.50;;;;;;4949533;29;20239;-47
2021/07/15 05:20:58;;;;;;;1.10;0.80;;;22.60;61.40;;;;;;4948757;28;20448;-46
2021/07/15 05:23:24;;;;;;;0.80;0.70;;;22.90;60.70;;;;;;4948303;28;20576;-46
2021/07/15 05:25:51;;;;;;;0.60;0.60;;;22.90;59.50;;;;;;4949132;28;20580;-51
2021/07/15 05:28:17;;;;;;;0.50;0.50;;;22.60;59.50;;;;;;4951676;29;20204;-46
2021/07/15 05:30:43;;;;;;;1.30;0.50;;;22.60;60.30;;;;;;4947149;28;20491;-48
2021/07/15 05:33:09;;;;;;;0.60;0.60;;;22.80;59.90;;;;;;4951121;28;20871;-50
2021/07/15 05:35:35;;;;;;;0.87;0.53;;;23.00;59.60;;;;;;4948666;28;20734;-46
2021/07/15 05:38:01;;;;;;;0.83;0.50;;;23.10;59.20;;;;;;4947045;28;20246;-47
2021/07/15 05:40:27;;;;;;;1.10;1.00;;;23.20;59.00;;;;;;4947360;28;20976;-48
2021/07/15 05:42:52;;;;;;;1.07;0.50;;;23.20;58.70;;;;;;4948399;28;20442;-46
2021/07/15 05:45:18;;;;;;;0.60;0.53;;;23.30;58.50;;;;;;4945849;28;20200;-46
2021/07/15 05:47:44;;;;;;;0.70;0.53;;;23.30;58.40;;;;;;4950103;29;20207;-47
2021/07/15 05:50:10;;;;;;;0.50;0.50;;;23.20;58.10;;;;;;4952032;28;20700;-46
2021/07/15 05:52:36;;;;;;;1.37;0.53;;;23.20;58.30;;;;;;4950696;28;20207;-47
2021/07/15 05:55:02;;;;;;;0.70;0.60;;;23.20;58.30;;;;;;4947738;28;20452;-46
2021/07/15 05:57:27;;;;;;;0.60;0.60;;;23.30;58.30;;;;;;4944088;28;20275;-48
2021/07/15 05:59:53;;;;;;;0.97;0.53;;;23.40;58.20;;;;;;4949944;28;20196;-48
2021/07/15 06:02:19;;;;;;;1.00;0.67;;;23.40;58.00;;;;;;4948887;28;20574;-46
2021/07/15 06:04:46;;;;;;;2.33;0.60;;;23.50;58.00;;;;;;4952280;29;20246;-47
2021/07/15 06:07:11;;;;;;;0.57;0.57;;;23.50;57.80;;;;;;4944051;28;20394;-47
2021/07/15 06:09:37;;;;;;;0.60;0.50;;;23.60;57.70;;;;;;4943926;28;20487;-46
2021/07/15 06:12:03;;;;;;;2.10;0.70;;;23.60;57.70;;;;;;4947661;28;20210;-46
2021/07/15 06:14:29;;;;;;;4.47;0.70;;;23.60;57.70;;;;;;4948904;28;20196;-47
2021/07/15 06:16:55;;;;;;;0.60;0.60;;;23.50;57.90;;;;;;4946768;28;20277;-46
2021/07/15 06:19:20;;;;;;;1.10;0.73;;;23.50;57.80;;;;;;4948539;28;20478;-47
2021/07/15 06:21:46;;;;;;;0.50;0.50;;;23.50;57.70;;;;;;4948209;28;20192;-47
2021/07/15 06:24:11;;;;;;;1.07;0.70;;;23.50;57.70;;;;;;4946706;28;20203;-47
2021/07/15 06:26:37;;;;;;;2.00;0.60;;;23.30;58.00;;;;;;4951467;29;20203;-47
2021/07/15 06:29:04;;;;;;;1.17;0.60;;;23.30;58.00;;;;;;4950498;28;20203;-46
2021/07/15 06:31:30;;;;;;;1.53;0.70;;;23.30;58.20;;;;;;4952351;29;20247;-46
2021/07/15 06:33:55;;;;;;;0.90;0.50;;;23.30;58.30;;;;;;4949134;29;20451;-48
2021/07/15 06:36:21;;;;;;;0.93;0.60;;;23.00;58.40;;;;;;4951891;28;20440;-46
2021/07/15 06:38:47;;;;;;;1.33;0.60;;;22.90;58.90;;;;;;4952865;28;20283;-47
2021/07/15 06:41:13;;;;;;;1.53;0.50;;;22.90;59.00;;;;;;4950106;29;20567;-47
2021/07/15 06:43:39;;;;;;;0.60;0.60;;;22.90;59.20;;;;;;4948275;28;20518;-46
2021/07/15 06:46:05;;;;;;;2.70;0.80;;;22.80;59.30;;;;;;4946343;28;20192;-48
2021/07/15 06:48:31;;;;;;;0.60;0.60;;;22.80;59.60;;;;;;4952718;28;20431;-48
2021/07/15 06:50:57;;;;;;;2.30;0.57;;;22.80;60.10;;;;;;4947122;28;20502;-46
2021/07/15 06:53:23;;;;;;;0.80;0.60;;;22.90;59.80;;;;;;4949074;29;20196;-46
2021/07/15 06:55:49;;;;;;;1.10;0.67;;;22.90;59.50;;;;;;4951137;29;20271;-46
2021/07/15 06:58:14;;;;;;;0.97;0.60;;;23.00;59.30;;;;;;4949127;29;20566;-46
2021/07/15 07:00:40;;;;;;;0.60;0.60;;;22.90;58.90;;;;;;4952295;29;20207;-46
2021/07/15 07:03:05;;;;;;;1.13;0.70;;;22.90;59.30;;;;;;4950199;29;20192;-45
2021/07/15 07:05:31;;;;;;;1.43;0.73;;;22.60;60.30;;;;;;4949620;29;20195;-47
2021/07/15 07:07:58;;;;;;;1.67;0.90;;;22.70;60.30;;;;;;4951836;29;20675;-47
2021/07/15 07:10:23;;;;;;;1.53;0.70;;;22.80;60.10;;;;;;4945264;28;20240;-46
2021/07/15 07:12:49;;;;;;;2.47;0.80;;;22.90;59.70;;;;;;4952982;29;20439;-46
2021/07/15 07:15:17;;;;;;;3.50;0.70;;;23.00;59.30;;;;;;4948288;28;20189;-46
2021/07/15 07:17:44;;;;;;;1.47;0.60;;;23.00;59.40;;;;;;4960685;28;20699;-48
2021/07/15 07:20:11;;;;;;;2.40;0.70;;;23.00;59.30;;;;;;4947832;29;20436;-46
2021/07/15 07:22:37;;;;;;;0.73;0.60;;;23.00;59.30;;;;;;4950165;28;20431;-47
2021/07/15 07:25:05;;;;;;;3.60;0.50;;;23.10;59.30;;;;;;4949595;29;20546;-46
2021/07/15 07:27:31;;;;;;;0.70;0.63;;;23.10;59.20;;;;;;4952708;29;20451;-47
2021/07/15 07:29:57;;;;;;;0.70;0.70;;;23.20;58.90;;;;;;4947197;28;20571;-48
2021/07/15 07:32:23;;;;;;;1.93;0.60;;;23.20;58.60;;;;;;4942924;29;20955;-46
2021/07/15 07:34:49;;;;;;;2.30;0.60;;;23.40;58.30;;;;;;4952638;28;20444;-45
2021/07/15 07:37:14;;;;;;;1.63;0.70;;;23.40;58.10;;;;;;4940829;28;20196;-48
2021/07/15 07:39:40;;;;;;;1.27;0.60;;;23.40;58.10;;;;;;4946680;29;20566;-47
2021/07/15 07:42:07;;;;;;;1.37;0.57;;;23.50;58.10;;;;;;4941283;29;20577;-48
2021/07/15 07:44:32;;;;;;;4.10;0.90;;;23.50;57.90;;;;;;4953343;29;20199;-47
2021/07/15 07:46:58;;;;;;;0.87;0.50;;;23.50;57.50;;;;;;4952186;29;20936;-46
2021/07/15 07:49:24;;;;;;;1.03;0.70;;;23.50;57.90;;;;;;4934722;29;20193;-47
2021/07/15 07:51:49;;;;;;;1.17;0.70;;;23.60;57.90;;;;;;4933414;29;20200;-47
2021/07/15 07:54:15;;;;;;;1.27;0.80;;;23.70;57.80;;;;;;4934110;29;20197;-48
2021/07/15 07:56:40;;;;;;;1.47;0.60;;;23.80;58.10;;;;;;4936959;29;20707;-52
2021/07/15 07:59:06;;;;;;;0.80;0.70;;;23.80;58.10;;;;;;4952710;29;20656;-46
2021/07/15 08:01:35;;;;;;;1.70;0.80;;;23.80;58.00;;;;;;4953473;28;20219;-46
2021/07/15 08:04:01;;;;;;;2.63;0.70;;;23.80;57.90;;;;;;4956965;29;20238;-46
2021/07/15 08:06:32;;;;;;;0.80;0.60;;;23.80;57.70;;;;;;4956197;28;20779;-46
2021/07/15 08:08:58;;;;;;;0.87;0.60;;;23.80;57.50;;;;;;4956570;29;20595;-47
2021/07/15 08:11:24;;;;;;;2.10;0.80;;;23.90;57.60;;;;;;4956351;29;20491;-46
2021/07/15 08:13:49;;;;;;;0.60;0.50;;;23.90;57.40;;;;;;4954676;29;20275;-51
2021/07/15 08:16:15;;;;;;;1.23;0.80;;;23.90;57.20;;;;;;4953606;29;20263;-47
2021/07/15 08:18:41;;;;;;;0.60;0.60;;;23.90;57.10;;;;;;4947668;29;20236;-46
2021/07/15 08:21:06;;;;;;;1.23;0.70;;;23.80;57.10;;;;;;4955859;28;20200;-45
2021/07/15 08:23:33;;;;;;;1.10;0.60;;;23.80;56.90;;;;;;4955643;29;20316;-48
2021/07/15 08:25:59;;;;;;;0.67;0.50;;;23.90;57.30;;;;;;4954676;28;20475;-46
2021/07/15 08:28:24;;;;;;;1.20;1.00;;;23.90;57.20;;;;;;4937844;29;20232;-45
2021/07/15 08:30:50;;;;;;;1.20;0.80;;;24.00;56.60;;;;;;4936996;29;20231;-46
2021/07/15 08:33:16;;;;;;;0.80;0.60;;;24.10;56.20;;;;;;4937672;29;20203;-47
2021/07/15 08:35:41;;;;;;;1.70;0.70;;;24.20;56.00;;;;;;4937063;29;20196;-48
2021/07/15 08:38:09;;;;;;;2.00;0.77;;;24.20;56.00;;;;;;4959654;28;20674;-47
2021/07/15 08:40:35;;;;;;;1.70;0.70;;;24.20;56.40;;;;;;4942576;29;20209;-46
2021/07/15 08:43:01;;;;;;;1.10;0.93;;;24.20;56.50;;;;;;4937387;29;20433;-46
2021/07/15 08:45:28;;;;;;;0.70;0.70;;;24.20;56.10;;;;;;4942641;29;21044;-46
2021/07/15 08:47:55;;;;;;;0.80;0.80;;;24.20;56.20;;;;;;4948813;28;20531;-47
2021/07/15 08:50:21;;;;;;;0.63;0.63;;;24.10;56.10;;;;;;4936589;29;20523;-46
2021/07/15 08:52:47;;;;;;;0.83;0.83;;;24.10;56.10;;;;;;4935645;29;20464;-49
2021/07/15 08:57:40;;;;;;;1.00;0.90;;;24.20;56.50;;;;;;4940680;29;20448;-46
2021/07/15 09:00:12;;;;;;;0.70;0.70;;;24.20;56.30;;;;;;4955644;29;20426;-46
2021/07/15 09:02:38;;;;;;;1.37;0.80;;;24.20;56.50;;;;;;4956466;29;20538;-47
2021/07/15 09:05:05;;;;;;;0.67;0.67;;;24.10;56.60;;;;;;4954498;28;20538;-47
2021/07/15 09:07:31;;;;;;;1.33;0.80;;;24.20;56.90;;;;;;4954629;28;20447;-46
2021/07/15 09:09:56;;;;;;;0.67;0.67;;;24.30;57.40;;;;;;4959217;28;20847;-47
2021/07/15 09:12:22;;;;;;;2.40;0.70;;;24.30;57.80;;;;;;4961321;28;20207;-48
2021/07/15 09:14:49;;;;;;;1.43;0.70;;;24.30;57.90;;;;;;4957265;28;20653;-49
2021/07/15 09:17:16;;;;;;;0.67;0.67;;;24.40;57.30;;;;;;4952060;29;20266;-47
2021/07/15 09:19:42;;;;;;;1.37;0.70;;;24.30;56.80;;;;;;4951921;28;20455;-47
2021/07/15 09:22:13;;;;;;;1.10;0.60;;;24.30;56.70;;;;;;4953707;28;20806;-48
2021/07/15 09:24:44;;;;;;;0.97;0.60;;;24.30;57.10;;;;;;4950619;28;20994;-46
2021/07/15 09:27:23;;;;;;;0.50;0.50;;;24.30;57.50;;;;;;4952082;29;21109;-45
2021/07/15 09:30:05;;;;;;;2.60;0.80;;;24.30;57.50;;;;;;4951426;28;20468;-45
2021/07/15 09:32:31;;;;;;;0.63;0.63;;;24.50;57.40;;;;;;4945966;28;20462;-46
2021/07/15 09:35:07;;;;;;;1.00;0.80;;;24.50;56.60;;;;;;4955726;28;20436;-47
2021/07/15 09:37:36;;;;;;;0.57;0.57;;;24.60;56.30;;;;;;4948817;28;20203;-47
2021/07/15 09:40:04;;;;;;;0.80;0.80;;;24.60;56.20;;;;;;4956073;28;20465;-46
2021/07/15 09:42:30;;;;;;;1.97;1.00;;;24.60;55.80;;;;;;4959701;28;20443;-46
2021/07/15 09:44:55;;;;;;;1.00;0.90;;;24.70;56.10;;;;;;4957702;28;20506;-46
2021/07/15 09:47:39;;;;;;;0.73;0.60;;;24.60;56.30;;;;;;4957120;28;20203;-46
2021/07/15 09:50:17;;;;;;;1.03;0.70;;;24.70;55.90;;;;;;4951964;28;20231;-45
2021/07/15 09:52:43;;;;;;;1.47;0.80;;;24.70;56.60;;;;;;4953860;28;21007;-45
2021/07/15 09:55:22;;;;;;;1.00;0.70;;;24.70;56.90;;;;;;4948136;29;20526;-47
2021/07/15 09:58:05;;;;;;;1.03;0.70;;;24.90;56.40;;;;;;4952058;28;20451;-46
2021/07/15 10:00:32;;;;;;;0.60;0.60;;;25.00;55.20;;;;;;4954050;28;20436;-45
2021/07/15 10:02:58;;;;;;;1.73;1.10;;;25.20;55.50;;;;;;4954042;28;20432;-45
2021/07/15 10:05:24;;;;;;;1.43;1.07;;;25.30;54.30;;;;;;4954098;28;20447;-45
2021/07/15 10:07:50;;;;;;;1.20;0.77;;;25.40;54.10;;;;;;4962494;28;20187;-46
2021/07/15 10:10:20;;;;;;;1.63;0.80;;;25.50;54.00;;;;;;4956741;28;21009;-45
2021/07/15 10:12:46;;;;;;;0.97;0.83;;;25.40;53.30;;;;;;4953838;28;20290;-46
2021/07/15 10:15:14;;;;;;;0.70;0.60;;;25.40;53.50;;;;;;4952294;28;20531;-45
2021/07/15 10:17:44;;;;;;;1.43;0.70;;;25.50;53.40;;;;;;4952915;28;20231;-46
2021/07/15 10:20:18;;;;;;;0.77;0.70;;;25.60;53.40;;;;;;4952464;28;20478;-46
2021/07/15 10:22:44;;;;;;;0.73;0.73;;;25.80;53.50;;;;;;4954152;29;20471;-47
2021/07/15 10:25:12;;;;;;;1.30;0.80;;;25.90;53.50;;;;;;4953450;28;20819;-45
2021/07/15 10:27:39;;;;;;;1.67;0.70;;;26.10;53.80;;;;;;4952563;28;20974;-46
2021/07/15 10:30:08;;;;;;;1.97;0.77;;;26.20;53.20;;;;;;4938337;28;20499;-45
2021/07/15 10:32:36;;;;;;;1.63;0.83;;;26.40;52.60;;;;;;4955908;28;20893;-48
2021/07/15 10:35:04;;;;;;;1.10;0.80;;;26.50;51.30;;;;;;4961522;28;20438;-52
2021/07/15 10:37:34;;;;;;;0.80;0.80;;;26.60;50.60;;;;;;4946817;28;20481;-48
2021/07/15 10:40:00;;;;;;;3.40;0.83;;;26.60;51.30;;;;;;4953476;28;20439;-49
2021/07/15 10:42:26;;;;;;;0.90;0.63;;;26.80;50.60;;;;;;4956250;28;20441;-48
2021/07/15 10:44:52;;;;;;;1.27;0.80;;;27.00;49.90;;;;;;4949728;28;20539;-48
2021/07/15 10:47:19;;;;;;;8.90;1.20;;;27.20;51.00;;;;;;4952349;28;20448;-45
2021/07/15 10:49:46;;;;;;;1.87;1.00;;;27.00;50.90;;;;;;4945362;29;20476;-46
2021/07/15 10:52:15;;;;;;;1.70;0.83;;;27.30;50.60;;;;;;4947201;28;20962;-45
2021/07/15 10:54:44;;;;;;;2.80;1.10;;;27.50;50.20;;;;;;4934984;29;21236;-46
2021/07/15 10:57:11;;;;;;;3.33;1.07;;;27.60;49.70;;;;;;4939574;28;20452;-48
2021/07/15 10:59:37;;;;;;;0.93;0.87;;;27.80;49.80;;;;;;4953558;29;20456;-46
2021/07/15 11:02:16;;;;;;;1.93;0.87;;;27.80;49.20;;;;;;4945894;29;21253;-46
2021/07/15 11:04:41;;;;;;;1.13;0.80;;;27.80;48.40;;;;;;4945379;29;20200;-46
2021/07/15 11:07:30;;;;;;;0.73;0.70;;;27.90;49.10;;;;;;4947757;28;20448;-47
2021/07/15 11:10:33;;;;;;;0.87;0.80;;;28.00;48.50;;;;;;4946682;29;20223;-47
2021/07/15 11:13:03;;;;;;;2.73;0.70;;;28.10;48.70;;;;;;4919221;28;20455;-45
2021/07/15 11:15:55;;;;;;;0.90;0.90;;;28.00;48.00;;;;;;4952008;28;20431;-45
2021/07/15 11:18:41;;;;;;;1.10;0.90;;;28.10;48.10;;;;;;4952801;29;20582;-45
2021/07/15 11:21:30;;;;;;;0.80;0.80;;;28.00;48.20;;;;;;4951945;28;20467;-46
2021/07/15 11:24:04;;;;;;;0.80;0.67;;;28.00;47.90;;;;;;4953826;28;20462;-45
2021/07/15 11:26:33;;;;;;;0.80;0.80;;;28.10;48.10;;;;;;4950497;28;20447;-45
2021/07/15 11:28:59;;;;;;;1.27;0.60;;;28.10;47.40;;;;;;4950346;28;20510;-47
2021/07/15 11:31:46;;;;;;;0.50;0.50;;;28.00;47.30;;;;;;4935067;28;20491;-45
2021/07/15 11:34:40;;;;;;;0.60;0.60;;;27.90;47.70;;;;;;4962523;28;20479;-45
2021/07/15 11:37:40;;;;;;;2.77;0.70;;;27.90;48.40;;;;;;4948505;28;20462;-50
2021/07/15 11:40:34;;;;;;;0.90;0.70;;;28.00;48.60;;;;;;4950845;28;20440;-44
2021/07/15 11:43:18;;;;;;;2.80;0.60;;;27.90;48.50;;;;;;4938384;28;20449;-45
2021/07/15 11:46:02;;;;;;;0.63;0.63;;;28.00;47.90;;;;;;4947408;28;20456;-45
2021/07/15 11:48:47;;;;;;;0.70;0.70;;;28.10;47.70;;;;;;4952137;28;21026;-47
2021/07/15 11:51:22;;;;;;;1.40;0.80;;;28.00;48.00;;;;;;4944860;28;20495;-49
2021/07/15 11:54:18;;;;;;;0.87;0.50;;;27.90;48.50;;;;;;4951256;29;20450;-46
2021/07/15 11:56:45;;;;;;;0.60;0.60;;;27.70;49.80;;;;;;4938923;29;20566;-45
2021/07/15 11:59:11;;;;;;;1.00;0.90;;;27.30;50.50;;;;;;4942514;28;20448;-48
2021/07/15 12:01:37;;;;;;;1.03;0.87;;;27.20;50.80;;;;;;4947883;28;20793;-45
2021/07/15 12:04:08;;;;;;;1.17;0.83;;;26.70;51.20;;;;;;4949302;28;20455;-56
2021/07/15 12:06:37;;;;;;;0.93;0.93;;;26.70;51.70;;;;;;4948156;28;20502;-47
2021/07/15 12:09:12;;;;;;;2.40;1.33;;;26.80;51.60;;;;;;4952496;28;20451;-50
2021/07/15 12:11:40;;;;;;;0.70;0.60;;;26.90;51.90;;;;;;4956716;28;20489;-47
2021/07/15 12:14:06;;;;;;;1.23;0.73;;;26.90;52.30;;;;;;4962203;28;20439;-46
2021/07/15 12:16:35;;;;;;;0.60;0.60;;;27.10;52.70;;;;;;4955761;28;20508;-49
2021/07/15 12:19:07;;;;;;;0.60;0.60;;;27.20;52.10;;;;;;4950671;28;20502;-49
2021/07/15 12:21:33;;;;;;;0.70;0.70;;;27.40;51.20;;;;;;4963061;28;20562;-46
2021/07/15 12:24:10;;;;;;;2.03;0.70;;;27.40;50.50;;;;;;4953743;28;20451;-50
2021/07/15 12:26:37;;;;;;;1.33;0.60;;;27.50;50.40;;;;;;4953471;28;20446;-47
2021/07/15 12:29:06;;;;;;;2.07;0.80;;;27.60;50.10;;;;;;4953697;28;21297;-47
2021/07/15 12:31:32;;;;;;;1.03;0.90;;;27.60;48.80;;;;;;4949138;28;20586;-47
2021/07/15 12:34:06;;;;;;;4.03;0.73;;;27.40;49.30;;;;;;4952872;28;20608;-50
2021/07/15 12:36:34;;;;;;;3.60;0.70;;;27.30;49.20;;;;;;4950778;28;20529;-46
2021/07/15 12:39:06;;;;;;;1.23;0.80;;;27.30;49.00;;;;;;4951173;28;20534;-50
2021/07/15 12:41:34;;;;;;;0.97;0.90;;;27.30;49.70;;;;;;4951176;28;20463;-47
2021/07/15 12:44:02;;;;;;;0.60;0.60;;;27.30;50.10;;;;;;4952301;29;20443;-49
2021/07/15 12:46:36;;;;;;;0.60;0.60;;;27.50;49.50;;;;;;4951376;28;20443;-48
2021/07/15 12:49:14;;;;;;;3.27;0.70;;;27.40;48.80;;;;;;4958458;28;20455;-48
2021/07/15 12:51:43;;;;;;;2.10;0.90;;;27.50;49.40;;;;;;4968363;28;20486;-51
2021/07/15 12:54:28;;;;;;;0.60;0.60;;;27.40;48.60;;;;;;4955029;28;20443;-47
2021/07/15 12:56:54;;;;;;;1.63;0.80;;;27.50;48.50;;;;;;4963937;28;20439;-47
2021/07/15 12:59:24;;;;;;;1.70;1.00;;;27.50;49.00;;;;;;4955873;28;20538;-48
2021/07/15 13:01:49;;;;;;;1.13;0.93;;;27.60;49.20;;;;;;4955293;28;20455;-50